sensor_id;sensor_type;location;lat;lon;timestamp;P1;durP1;ratioP1;P2;durP2;ratioP2
29246;SDS011;16272;48.188;9.964;2024-01-15T00:02:06;18.85;;;7.65;;
29246;SDS011;16272;48.188;9.964;2024-01-15T00:04:35;18.80;;;8.00;;
29246;SDS011;16272;48.188;9.964;2024-01-15T00:07:04;18.40;;;6.65;;
29246;SDS011;16272;48.188;9.964;2024-01-15T00:09:30;18.27;;;7.25;;
29246;SDS011;16272;48.188;9.964;2024-01-15T00:11:55;19.20;;;7.83;;
29246;SDS011;16272;48.188;9.964;2024-01-15T00:14:20;20.33;;;7.63;;
29246;SDS011;16272;48.188;9.964;2024-01-15T00:16:46;18.57;;;7.13;;
29246;SDS011;16272;48.188;9.964;2024-01-15T00:19:12;18.70;;;7.63;;
29246;SDS011;16272;48.188;9.964;2024-01-15T00:21:37;20.25;;;8.00;;
29246;SDS011;16272;48.188;9.964;2024-01-15T00:24:02;18.93;;;7.20;;
29246;SDS011;16272;48.188;9.964;2024-01-15T00:26:28;18.30;;;7.50;;
29246;SDS011;16272;48.188;9.964;2024-01-15T00:28:53;20.03;;;7.73;;
29246;SDS011;16272;48.188;9.964;2024-01-15T00:31:18;19.53;;;8.17;;
29246;SDS011;16272;48.188;9.964;2024-01-15T00:33:44;21.73;;;8.57;;
29246;SDS011;16272;48.188;9.964;2024-01-15T00:36:09;19.07;;;7.63;;
29246;SDS011;16272;48.188;9.964;2024-01-15T00:38:34;21.30;;;8.13;;
29246;SDS011;16272;48.188;9.964;2024-01-15T00:40:59;19.37;;;7.43;;
29246;SDS011;16272;48.188;9.964;2024-01-15T00:43:25;19.77;;;7.90;;
29246;SDS011;16272;48.188;9.964;2024-01-15T00:45:50;21.57;;;8.23;;
29246;SDS011;16272;48.188;9.964;2024-01-15T00:48:15;20.37;;;8.30;;
29246;SDS011;16272;48.188;9.964;2024-01-15T00:50:40;23.42;;;9.00;;
29246;SDS011;16272;48.188;9.964;2024-01-15T00:53:06;22.37;;;8.70;;
29246;SDS011;16272;48.188;9.964;2024-01-15T00:55:31;21.80;;;8.63;;
29246;SDS011;16272;48.188;9.964;2024-01-15T00:57:56;23.00;;;8.80;;
29246;SDS011;16272;48.188;9.964;2024-01-15T01:00:22;22.50;;;8.83;;
29246;SDS011;16272;48.188;9.964;2024-01-15T01:02:47;22.07;;;8.80;;
29246;SDS011;16272;48.188;9.964;2024-01-15T01:05:12;22.83;;;8.87;;
29246;SDS011;16272;48.188;9.964;2024-01-15T01:07:38;21.40;;;8.50;;
29246;SDS011;16272;48.188;9.964;2024-01-15T01:10:03;22.00;;;8.77;;
29246;SDS011;16272;48.188;9.964;2024-01-15T01:12:29;22.97;;;8.67;;
29246;SDS011;16272;48.188;9.964;2024-01-15T01:14:55;21.77;;;8.27;;
29246;SDS011;16272;48.188;9.964;2024-01-15T01:17:20;21.57;;;8.53;;
29246;SDS011;16272;48.188;9.964;2024-01-15T01:19:45;23.37;;;8.50;;
29246;SDS011;16272;48.188;9.964;2024-01-15T01:22:10;21.10;;;8.23;;
29246;SDS011;16272;48.188;9.964;2024-01-15T01:24:36;22.10;;;8.40;;
29246;SDS011;16272;48.188;9.964;2024-01-15T01:27:01;20.70;;;8.23;;
29246;SDS011;16272;48.188;9.964;2024-01-15T01:29:26;21.27;;;8.53;;
29246;SDS011;16272;48.188;9.964;2024-01-15T01:31:52;21.88;;;8.43;;
29246;SDS011;16272;48.188;9.964;2024-01-15T01:34:17;20.90;;;8.30;;
29246;SDS011;16272;48.188;9.964;2024-01-15T01:36:42;21.37;;;8.03;;
29246;SDS011;16272;48.188;9.964;2024-01-15T01:39:08;21.10;;;8.90;;
29246;SDS011;16272;48.188;9.964;2024-01-15T01:41:34;22.10;;;8.88;;
29246;SDS011;16272;48.188;9.964;2024-01-15T01:43:59;22.17;;;8.80;;
29246;SDS011;16272;48.188;9.964;2024-01-15T01:46:25;22.60;;;8.60;;
29246;SDS011;16272;48.188;9.964;2024-01-15T01:48:52;21.48;;;8.38;;
29246;SDS011;16272;48.188;9.964;2024-01-15T01:51:20;23.17;;;8.60;;
29246;SDS011;16272;48.188;9.964;2024-01-15T01:53:46;21.40;;;8.43;;
29246;SDS011;16272;48.188;9.964;2024-01-15T01:56:12;20.83;;;8.18;;
29246;SDS011;16272;48.188;9.964;2024-01-15T01:58:39;21.05;;;8.60;;
29246;SDS011;16272;48.188;9.964;2024-01-15T02:01:04;20.53;;;7.70;;
29246;SDS011;16272;48.188;9.964;2024-01-15T02:03:30;19.10;;;7.53;;
29246;SDS011;16272;48.188;9.964;2024-01-15T02:05:56;21.67;;;8.07;;
29246;SDS011;16272;48.188;9.964;2024-01-15T02:08:21;19.43;;;7.77;;
29246;SDS011;16272;48.188;9.964;2024-01-15T02:10:47;19.20;;;7.47;;
29246;SDS011;16272;48.188;9.964;2024-01-15T02:13:12;18.83;;;7.23;;
29246;SDS011;16272;48.188;9.964;2024-01-15T02:15:38;18.97;;;7.20;;
29246;SDS011;16272;48.188;9.964;2024-01-15T02:18:04;17.13;;;6.80;;
29246;SDS011;16272;48.188;9.964;2024-01-15T02:20:31;19.25;;;7.05;;
29246;SDS011;16272;48.188;9.964;2024-01-15T02:23:02;17.23;;;6.63;;
29246;SDS011;16272;48.188;9.964;2024-01-15T02:25:27;17.70;;;6.85;;
29246;SDS011;16272;48.188;9.964;2024-01-15T02:27:53;17.90;;;6.53;;
29246;SDS011;16272;48.188;9.964;2024-01-15T02:30:19;17.77;;;6.97;;
29246;SDS011;16272;48.188;9.964;2024-01-15T02:32:44;18.70;;;6.97;;
29246;SDS011;16272;48.188;9.964;2024-01-15T02:35:10;17.85;;;6.57;;
29246;SDS011;16272;48.188;9.964;2024-01-15T02:37:35;17.65;;;6.60;;
29246;SDS011;16272;48.188;9.964;2024-01-15T02:40:01;17.00;;;6.20;;
29246;SDS011;16272;48.188;9.964;2024-01-15T02:42:26;18.10;;;6.73;;
29246;SDS011;16272;48.188;9.964;2024-01-15T02:44:51;18.67;;;6.50;;
29246;SDS011;16272;48.188;9.964;2024-01-15T02:47:16;17.37;;;6.43;;
29246;SDS011;16272;48.188;9.964;2024-01-15T02:49:42;17.37;;;6.50;;
29246;SDS011;16272;48.188;9.964;2024-01-15T02:52:07;17.20;;;6.40;;
29246;SDS011;16272;48.188;9.964;2024-01-15T02:54:32;18.40;;;6.50;;
29246;SDS011;16272;48.188;9.964;2024-01-15T02:56:57;16.37;;;6.20;;
29246;SDS011;16272;48.188;9.964;2024-01-15T02:59:23;17.80;;;6.10;;
29246;SDS011;16272;48.188;9.964;2024-01-15T03:01:48;17.83;;;6.90;;
29246;SDS011;16272;48.188;9.964;2024-01-15T03:04:13;16.67;;;6.30;;
29246;SDS011;16272;48.188;9.964;2024-01-15T03:06:39;17.53;;;6.33;;
29246;SDS011;16272;48.188;9.964;2024-01-15T03:09:04;17.37;;;6.47;;
29246;SDS011;16272;48.188;9.964;2024-01-15T03:11:36;17.08;;;6.57;;
29246;SDS011;16272;48.188;9.964;2024-01-15T03:14:02;17.42;;;6.68;;
29246;SDS011;16272;48.188;9.964;2024-01-15T03:16:27;18.50;;;6.53;;
29246;SDS011;16272;48.188;9.964;2024-01-15T03:18:52;17.83;;;6.70;;
29246;SDS011;16272;48.188;9.964;2024-01-15T03:21:18;16.93;;;6.37;;
29246;SDS011;16272;48.188;9.964;2024-01-15T03:23:43;17.07;;;6.43;;
29246;SDS011;16272;48.188;9.964;2024-01-15T03:26:08;17.63;;;6.32;;
29246;SDS011;16272;48.188;9.964;2024-01-15T03:28:33;16.83;;;6.15;;
29246;SDS011;16272;48.188;9.964;2024-01-15T03:30:59;17.53;;;6.33;;
29246;SDS011;16272;48.188;9.964;2024-01-15T03:33:24;16.37;;;6.30;;
29246;SDS011;16272;48.188;9.964;2024-01-15T03:35:49;16.57;;;5.93;;
29246;SDS011;16272;48.188;9.964;2024-01-15T03:38:14;18.00;;;5.80;;
29246;SDS011;16272;48.188;9.964;2024-01-15T03:40:40;15.87;;;5.57;;
29246;SDS011;16272;48.188;9.964;2024-01-15T03:43:05;15.33;;;5.50;;
29246;SDS011;16272;48.188;9.964;2024-01-15T03:45:30;14.20;;;5.00;;
29246;SDS011;16272;48.188;9.964;2024-01-15T03:47:55;13.80;;;4.60;;
29246;SDS011;16272;48.188;9.964;2024-01-15T03:50:21;12.77;;;4.50;;
29246;SDS011;16272;48.188;9.964;2024-01-15T03:52:46;13.30;;;4.30;;
29246;SDS011;16272;48.188;9.964;2024-01-15T03:55:11;12.47;;;3.87;;
29246;SDS011;16272;48.188;9.964;2024-01-15T03:57:37;9.87;;;3.03;;
29246;SDS011;16272;48.188;9.964;2024-01-15T04:00:02;10.38;;;3.20;;
29246;SDS011;16272;48.188;9.964;2024-01-15T04:02:28;10.20;;;3.20;;
29246;SDS011;16272;48.188;9.964;2024-01-15T04:04:53;10.23;;;3.47;;
29246;SDS011;16272;48.188;9.964;2024-01-15T04:07:19;10.33;;;3.33;;
29246;SDS011;16272;48.188;9.964;2024-01-15T04:09:44;9.20;;;2.90;;
29246;SDS011;16272;48.188;9.964;2024-01-15T04:12:09;11.30;;;3.63;;
29246;SDS011;16272;48.188;9.964;2024-01-15T04:14:35;11.97;;;4.10;;
29246;SDS011;16272;48.188;9.964;2024-01-15T04:17:00;11.50;;;4.13;;
29246;SDS011;16272;48.188;9.964;2024-01-15T04:19:25;11.60;;;3.97;;
29246;SDS011;16272;48.188;9.964;2024-01-15T04:21:50;12.40;;;4.33;;
29246;SDS011;16272;48.188;9.964;2024-01-15T04:24:16;11.23;;;3.90;;
29246;SDS011;16272;48.188;9.964;2024-01-15T04:26:43;12.73;;;3.67;;
29246;SDS011;16272;48.188;9.964;2024-01-15T04:29:08;11.73;;;3.90;;
29246;SDS011;16272;48.188;9.964;2024-01-15T04:31:33;12.60;;;4.30;;
29246;SDS011;16272;48.188;9.964;2024-01-15T04:33:59;11.77;;;3.97;;
29246;SDS011;16272;48.188;9.964;2024-01-15T04:36:24;11.63;;;3.97;;
29246;SDS011;16272;48.188;9.964;2024-01-15T04:38:49;10.33;;;3.67;;
29246;SDS011;16272;48.188;9.964;2024-01-15T04:41:14;11.67;;;3.87;;
29246;SDS011;16272;48.188;9.964;2024-01-15T04:43:41;11.83;;;3.83;;
29246;SDS011;16272;48.188;9.964;2024-01-15T04:46:06;11.60;;;3.83;;
29246;SDS011;16272;48.188;9.964;2024-01-15T04:48:32;12.00;;;3.83;;
29246;SDS011;16272;48.188;9.964;2024-01-15T04:50:58;10.83;;;3.93;;
29246;SDS011;16272;48.188;9.964;2024-01-15T04:53:23;11.73;;;4.00;;
29246;SDS011;16272;48.188;9.964;2024-01-15T04:55:48;11.50;;;3.85;;
29246;SDS011;16272;48.188;9.964;2024-01-15T04:58:14;11.40;;;3.93;;
29246;SDS011;16272;48.188;9.964;2024-01-15T05:00:39;12.10;;;4.20;;
29246;SDS011;16272;48.188;9.964;2024-01-15T05:03:04;12.90;;;4.13;;
29246;SDS011;16272;48.188;9.964;2024-01-15T05:05:29;12.07;;;4.20;;
29246;SDS011;16272;48.188;9.964;2024-01-15T05:07:55;13.23;;;3.83;;
29246;SDS011;16272;48.188;9.964;2024-01-15T05:10:20;12.00;;;3.90;;
29246;SDS011;16272;48.188;9.964;2024-01-15T05:12:45;10.83;;;3.80;;
29246;SDS011;16272;48.188;9.964;2024-01-15T05:15:11;10.70;;;3.40;;
29246;SDS011;16272;48.188;9.964;2024-01-15T05:17:36;10.83;;;3.57;;
29246;SDS011;16272;48.188;9.964;2024-01-15T05:20:01;10.60;;;3.30;;
29246;SDS011;16272;48.188;9.964;2024-01-15T05:22:28;10.70;;;3.80;;
29246;SDS011;16272;48.188;9.964;2024-01-15T05:24:53;11.13;;;3.60;;
29246;SDS011;16272;48.188;9.964;2024-01-15T05:27:18;11.53;;;3.70;;
29246;SDS011;16272;48.188;9.964;2024-01-15T05:29:44;10.93;;;3.73;;
29246;SDS011;16272;48.188;9.964;2024-01-15T05:32:09;10.00;;;3.57;;
29246;SDS011;16272;48.188;9.964;2024-01-15T05:34:34;11.73;;;4.07;;
29246;SDS011;16272;48.188;9.964;2024-01-15T05:37:00;10.57;;;3.57;;
29246;SDS011;16272;48.188;9.964;2024-01-15T05:39:25;11.53;;;3.97;;
29246;SDS011;16272;48.188;9.964;2024-01-15T05:41:50;12.60;;;4.13;;
29246;SDS011;16272;48.188;9.964;2024-01-15T05:44:15;11.83;;;4.30;;
29246;SDS011;16272;48.188;9.964;2024-01-15T05:46:41;12.77;;;4.50;;
29246;SDS011;16272;48.188;9.964;2024-01-15T05:49:06;11.60;;;4.00;;
29246;SDS011;16272;48.188;9.964;2024-01-15T05:51:31;11.63;;;4.20;;
29246;SDS011;16272;48.188;9.964;2024-01-15T05:53:57;12.45;;;4.55;;
29246;SDS011;16272;48.188;9.964;2024-01-15T05:56:22;13.53;;;4.60;;
29246;SDS011;16272;48.188;9.964;2024-01-15T05:58:49;13.45;;;4.70;;
29246;SDS011;16272;48.188;9.964;2024-01-15T06:01:14;14.30;;;5.40;;
29246;SDS011;16272;48.188;9.964;2024-01-15T06:03:39;13.47;;;4.80;;
29246;SDS011;16272;48.188;9.964;2024-01-15T06:06:05;12.97;;;4.60;;
29246;SDS011;16272;48.188;9.964;2024-01-15T06:08:30;13.70;;;5.07;;
29246;SDS011;16272;48.188;9.964;2024-01-15T06:10:56;13.73;;;4.90;;
29246;SDS011;16272;48.188;9.964;2024-01-15T06:13:21;13.73;;;5.13;;
29246;SDS011;16272;48.188;9.964;2024-01-15T06:15:46;13.57;;;4.80;;
29246;SDS011;16272;48.188;9.964;2024-01-15T06:18:12;13.50;;;4.57;;
29246;SDS011;16272;48.188;9.964;2024-01-15T06:20:37;17.65;;;7.20;;
29246;SDS011;16272;48.188;9.964;2024-01-15T06:23:03;14.60;;;5.03;;
29246;SDS011;16272;48.188;9.964;2024-01-15T06:25:29;14.23;;;4.88;;
29246;SDS011;16272;48.188;9.964;2024-01-15T06:27:54;13.93;;;5.10;;
29246;SDS011;16272;48.188;9.964;2024-01-15T06:30:19;14.17;;;4.83;;
29246;SDS011;16272;48.188;9.964;2024-01-15T06:32:44;14.87;;;5.30;;
29246;SDS011;16272;48.188;9.964;2024-01-15T06:35:10;14.83;;;5.27;;
29246;SDS011;16272;48.188;9.964;2024-01-15T06:37:36;14.13;;;5.00;;
29246;SDS011;16272;48.188;9.964;2024-01-15T06:40:02;13.80;;;4.70;;
29246;SDS011;16272;48.188;9.964;2024-01-15T06:42:28;12.70;;;4.25;;
29246;SDS011;16272;48.188;9.964;2024-01-15T06:44:53;13.37;;;5.03;;
29246;SDS011;16272;48.188;9.964;2024-01-15T06:47:18;14.10;;;4.97;;
29246;SDS011;16272;48.188;9.964;2024-01-15T06:49:44;13.10;;;4.70;;
29246;SDS011;16272;48.188;9.964;2024-01-15T06:52:09;12.70;;;5.30;;
29246;SDS011;16272;48.188;9.964;2024-01-15T06:54:34;12.90;;;5.10;;
29246;SDS011;16272;48.188;9.964;2024-01-15T06:57:00;13.57;;;4.60;;
29246;SDS011;16272;48.188;9.964;2024-01-15T06:59:25;12.73;;;4.95;;
29246;SDS011;16272;48.188;9.964;2024-01-15T07:01:50;13.20;;;4.93;;
29246;SDS011;16272;48.188;9.964;2024-01-15T07:04:15;14.70;;;5.10;;
29246;SDS011;16272;48.188;9.964;2024-01-15T07:06:41;12.83;;;4.50;;
29246;SDS011;16272;48.188;9.964;2024-01-15T07:09:06;13.30;;;4.57;;
29246;SDS011;16272;48.188;9.964;2024-01-15T07:11:33;12.82;;;4.65;;
29246;SDS011;16272;48.188;9.964;2024-01-15T07:13:58;12.63;;;4.57;;
29246;SDS011;16272;48.188;9.964;2024-01-15T07:16:23;12.57;;;4.43;;
29246;SDS011;16272;48.188;9.964;2024-01-15T07:18:48;11.43;;;3.90;;
29246;SDS011;16272;48.188;9.964;2024-01-15T07:21:14;12.50;;;4.25;;
29246;SDS011;16272;48.188;9.964;2024-01-15T07:23:39;11.50;;;4.10;;
29246;SDS011;16272;48.188;9.964;2024-01-15T07:26:05;11.97;;;4.00;;
29246;SDS011;16272;48.188;9.964;2024-01-15T07:28:30;13.37;;;4.53;;
29246;SDS011;16272;48.188;9.964;2024-01-15T07:30:56;11.57;;;4.23;;
29246;SDS011;16272;48.188;9.964;2024-01-15T07:33:22;10.95;;;3.92;;
29246;SDS011;16272;48.188;9.964;2024-01-15T07:35:47;11.23;;;3.90;;
29246;SDS011;16272;48.188;9.964;2024-01-15T07:38:12;10.90;;;3.60;;
29246;SDS011;16272;48.188;9.964;2024-01-15T07:40:38;10.40;;;3.80;;
29246;SDS011;16272;48.188;9.964;2024-01-15T07:43:03;10.30;;;3.20;;
29246;SDS011;16272;48.188;9.964;2024-01-15T07:45:28;9.80;;;3.30;;
29246;SDS011;16272;48.188;9.964;2024-01-15T07:47:54;9.00;;;3.15;;
29246;SDS011;16272;48.188;9.964;2024-01-15T07:50:19;10.40;;;3.20;;
29246;SDS011;16272;48.188;9.964;2024-01-15T07:52:44;9.97;;;3.03;;
29246;SDS011;16272;48.188;9.964;2024-01-15T07:55:10;9.00;;;2.80;;
29246;SDS011;16272;48.188;9.964;2024-01-15T07:57:35;9.37;;;2.90;;
29246;SDS011;16272;48.188;9.964;2024-01-15T08:00:01;9.70;;;3.20;;
29246;SDS011;16272;48.188;9.964;2024-01-15T08:02:28;9.15;;;2.70;;
29246;SDS011;16272;48.188;9.964;2024-01-15T08:04:53;9.70;;;3.10;;
29246;SDS011;16272;48.188;9.964;2024-01-15T08:07:19;9.37;;;3.10;;
29246;SDS011;16272;48.188;9.964;2024-01-15T08:09:44;10.60;;;3.30;;
29246;SDS011;16272;48.188;9.964;2024-01-15T08:12:11;10.02;;;3.15;;
29246;SDS011;16272;48.188;9.964;2024-01-15T08:14:37;9.77;;;3.22;;
29246;SDS011;16272;48.188;9.964;2024-01-15T08:17:03;10.07;;;3.30;;
29246;SDS011;16272;48.188;9.964;2024-01-15T08:19:28;9.63;;;3.40;;
29246;SDS011;16272;48.188;9.964;2024-01-15T08:21:53;8.80;;;2.97;;
29246;SDS011;16272;48.188;9.964;2024-01-15T08:24:18;9.73;;;3.00;;
29246;SDS011;16272;48.188;9.964;2024-01-15T08:26:44;8.30;;;2.77;;
29246;SDS011;16272;48.188;9.964;2024-01-15T08:29:10;9.75;;;3.90;;
29246;SDS011;16272;48.188;9.964;2024-01-15T08:31:35;9.33;;;3.10;;
29246;SDS011;16272;48.188;9.964;2024-01-15T08:34:01;8.25;;;2.78;;
29246;SDS011;16272;48.188;9.964;2024-01-15T08:36:27;8.50;;;2.97;;
29246;SDS011;16272;48.188;9.964;2024-01-15T08:38:54;8.40;;;2.60;;
29246;SDS011;16272;48.188;9.964;2024-01-15T08:41:20;8.57;;;3.00;;
29246;SDS011;16272;48.188;9.964;2024-01-15T08:43:45;8.50;;;2.70;;
29246;SDS011;16272;48.188;9.964;2024-01-15T08:46:10;8.73;;;2.80;;
29246;SDS011;16272;48.188;9.964;2024-01-15T08:48:36;9.38;;;2.72;;
29246;SDS011;16272;48.188;9.964;2024-01-15T08:51:01;8.00;;;2.67;;
29246;SDS011;16272;48.188;9.964;2024-01-15T08:53:27;8.88;;;2.42;;
29246;SDS011;16272;48.188;9.964;2024-01-15T08:55:52;10.00;;;2.60;;
29246;SDS011;16272;48.188;9.964;2024-01-15T08:58:18;8.50;;;2.30;;
29246;SDS011;16272;48.188;9.964;2024-01-15T09:00:43;7.77;;;2.33;;
29246;SDS011;16272;48.188;9.964;2024-01-15T09:03:09;8.30;;;2.70;;
29246;SDS011;16272;48.188;9.964;2024-01-15T09:05:34;6.65;;;1.77;;
29246;SDS011;16272;48.188;9.964;2024-01-15T09:08:00;7.57;;;2.10;;
29246;SDS011;16272;48.188;9.964;2024-01-15T09:10:25;7.17;;;1.97;;
29246;SDS011;16272;48.188;9.964;2024-01-15T09:12:51;6.47;;;1.77;;
29246;SDS011;16272;48.188;9.964;2024-01-15T09:15:16;7.40;;;1.90;;
29246;SDS011;16272;48.188;9.964;2024-01-15T09:17:41;6.87;;;1.80;;
29246;SDS011;16272;48.188;9.964;2024-01-15T09:20:08;6.93;;;1.77;;
29246;SDS011;16272;48.188;9.964;2024-01-15T09:22:34;6.47;;;1.75;;
29246;SDS011;16272;48.188;9.964;2024-01-15T09:24:59;6.17;;;1.70;;
29246;SDS011;16272;48.188;9.964;2024-01-15T09:27:24;6.03;;;1.70;;
29246;SDS011;16272;48.188;9.964;2024-01-15T09:29:51;6.07;;;1.63;;
29246;SDS011;16272;48.188;9.964;2024-01-15T09:32:17;6.25;;;1.60;;
29246;SDS011;16272;48.188;9.964;2024-01-15T09:34:42;6.00;;;1.40;;
29246;SDS011;16272;48.188;9.964;2024-01-15T09:37:07;6.83;;;1.70;;
29246;SDS011;16272;48.188;9.964;2024-01-15T09:39:32;6.27;;;1.60;;
29246;SDS011;16272;48.188;9.964;2024-01-15T09:41:58;6.23;;;1.70;;
29246;SDS011;16272;48.188;9.964;2024-01-15T09:44:24;6.50;;;1.60;;
29246;SDS011;16272;48.188;9.964;2024-01-15T09:46:51;6.10;;;1.50;;
29246;SDS011;16272;48.188;9.964;2024-01-15T09:49:17;6.38;;;1.63;;
29246;SDS011;16272;48.188;9.964;2024-01-15T09:51:43;6.63;;;1.80;;
29246;SDS011;16272;48.188;9.964;2024-01-15T09:54:08;6.83;;;1.80;;
29246;SDS011;16272;48.188;9.964;2024-01-15T09:56:34;6.43;;;1.70;;
29246;SDS011;16272;48.188;9.964;2024-01-15T09:59:00;7.22;;;2.05;;
29246;SDS011;16272;48.188;9.964;2024-01-15T10:01:26;6.03;;;1.50;;
29246;SDS011;16272;48.188;9.964;2024-01-15T10:03:52;6.23;;;1.57;;
29246;SDS011;16272;48.188;9.964;2024-01-15T10:06:18;6.30;;;1.90;;
29246;SDS011;16272;48.188;9.964;2024-01-15T10:08:51;6.87;;;1.87;;
29246;SDS011;16272;48.188;9.964;2024-01-15T10:11:16;6.72;;;1.70;;
29246;SDS011;16272;48.188;9.964;2024-01-15T10:13:45;6.77;;;2.13;;
29246;SDS011;16272;48.188;9.964;2024-01-15T10:16:11;7.15;;;2.15;;
29246;SDS011;16272;48.188;9.964;2024-01-15T10:18:36;7.00;;;2.17;;
29246;SDS011;16272;48.188;9.964;2024-01-15T10:21:03;7.05;;;2.40;;
29246;SDS011;16272;48.188;9.964;2024-01-15T10:23:31;7.65;;;3.10;;
29246;SDS011;16272;48.188;9.964;2024-01-15T10:25:57;8.20;;;2.60;;
29246;SDS011;16272;48.188;9.964;2024-01-15T10:28:22;7.77;;;2.60;;
29246;SDS011;16272;48.188;9.964;2024-01-15T10:30:52;9.23;;;3.13;;
29246;SDS011;16272;48.188;9.964;2024-01-15T10:33:22;9.02;;;2.90;;
29246;SDS011;16272;48.188;9.964;2024-01-15T10:35:50;10.13;;;3.30;;
29246;SDS011;16272;48.188;9.964;2024-01-15T10:38:18;9.73;;;3.33;;
29246;SDS011;16272;48.188;9.964;2024-01-15T10:40:47;9.60;;;3.20;;
29246;SDS011;16272;48.188;9.964;2024-01-15T10:43:12;8.63;;;2.72;;
29246;SDS011;16272;48.188;9.964;2024-01-15T10:45:37;9.37;;;3.20;;
29246;SDS011;16272;48.188;9.964;2024-01-15T10:48:03;7.60;;;2.40;;
29246;SDS011;16272;48.188;9.964;2024-01-15T10:50:29;7.85;;;2.38;;
29246;SDS011;16272;48.188;9.964;2024-01-15T10:52:54;7.73;;;2.70;;
29246;SDS011;16272;48.188;9.964;2024-01-15T10:55:21;8.02;;;2.58;;
29246;SDS011;16272;48.188;9.964;2024-01-15T10:57:49;9.07;;;2.50;;
29246;SDS011;16272;48.188;9.964;2024-01-15T11:00:14;8.17;;;2.77;;
29246;SDS011;16272;48.188;9.964;2024-01-15T11:02:40;7.88;;;2.70;;
29246;SDS011;16272;48.188;9.964;2024-01-15T11:05:05;7.97;;;2.67;;
29246;SDS011;16272;48.188;9.964;2024-01-15T11:07:32;7.87;;;2.80;;
29246;SDS011;16272;48.188;9.964;2024-01-15T11:09:57;7.67;;;2.80;;
29246;SDS011;16272;48.188;9.964;2024-01-15T11:12:25;10.33;;;3.63;;
29246;SDS011;16272;48.188;9.964;2024-01-15T11:14:51;9.07;;;2.80;;
29246;SDS011;16272;48.188;9.964;2024-01-15T11:17:18;8.90;;;2.80;;
29246;SDS011;16272;48.188;9.964;2024-01-15T11:19:44;9.37;;;3.37;;
29246;SDS011;16272;48.188;9.964;2024-01-15T11:22:53;8.80;;;3.20;;
29246;SDS011;16272;48.188;9.964;2024-01-15T11:25:03;9.82;;;3.15;;
29246;SDS011;16272;48.188;9.964;2024-01-15T11:27:45;9.20;;;3.30;;
29246;SDS011;16272;48.188;9.964;2024-01-15T11:30:12;9.73;;;3.58;;
29246;SDS011;16272;48.188;9.964;2024-01-15T11:32:39;10.43;;;3.60;;
29246;SDS011;16272;48.188;9.964;2024-01-15T11:35:08;9.93;;;3.40;;
29246;SDS011;16272;48.188;9.964;2024-01-15T11:40:23;10.05;;;3.33;;
29246;SDS011;16272;48.188;9.964;2024-01-15T11:43:02;11.13;;;3.93;;
29246;SDS011;16272;48.188;9.964;2024-01-15T11:45:28;10.68;;;3.45;;
29246;SDS011;16272;48.188;9.964;2024-01-15T11:50:38;11.45;;;3.78;;
29246;SDS011;16272;48.188;9.964;2024-01-15T11:53:17;10.10;;;3.53;;
29246;SDS011;16272;48.188;9.964;2024-01-15T11:55:44;10.93;;;3.50;;
29246;SDS011;16272;48.188;9.964;2024-01-15T11:58:10;10.23;;;3.65;;
29246;SDS011;16272;48.188;9.964;2024-01-15T12:03:13;8.02;;;2.40;;
29246;SDS011;16272;48.188;9.964;2024-01-15T12:05:39;10.40;;;3.40;;
29246;SDS011;16272;48.188;9.964;2024-01-15T12:08:06;9.40;;;3.40;;
29246;SDS011;16272;48.188;9.964;2024-01-15T12:10:35;9.73;;;3.20;;
29246;SDS011;16272;48.188;9.964;2024-01-15T12:15:41;9.85;;;3.67;;
29246;SDS011;16272;48.188;9.964;2024-01-15T12:18:08;10.67;;;3.90;;
29246;SDS011;16272;48.188;9.964;2024-01-15T12:20:34;11.45;;;4.35;;
29246;SDS011;16272;48.188;9.964;2024-01-15T12:23:00;11.32;;;4.05;;
29246;SDS011;16272;48.188;9.964;2024-01-15T12:25:28;11.80;;;3.97;;
29246;SDS011;16272;48.188;9.964;2024-01-15T12:27:55;11.43;;;4.10;;
29246;SDS011;16272;48.188;9.964;2024-01-15T12:30:21;11.70;;;4.10;;
29246;SDS011;16272;48.188;9.964;2024-01-15T12:32:46;11.50;;;4.07;;
29246;SDS011;16272;48.188;9.964;2024-01-15T12:35:12;11.43;;;4.18;;
29246;SDS011;16272;48.188;9.964;2024-01-15T12:37:42;12.32;;;4.25;;
29246;SDS011;16272;48.188;9.964;2024-01-15T12:40:09;11.57;;;4.35;;
29246;SDS011;16272;48.188;9.964;2024-01-15T12:42:41;11.60;;;4.18;;
29246;SDS011;16272;48.188;9.964;2024-01-15T12:45:08;13.57;;;4.63;;
29246;SDS011;16272;48.188;9.964;2024-01-15T12:47:35;12.45;;;4.78;;
29246;SDS011;16272;48.188;9.964;2024-01-15T12:50:02;13.27;;;4.38;;
29246;SDS011;16272;48.188;9.964;2024-01-15T12:52:27;12.57;;;4.35;;
29246;SDS011;16272;48.188;9.964;2024-01-15T12:54:54;12.32;;;4.30;;
29246;SDS011;16272;48.188;9.964;2024-01-15T12:57:19;12.73;;;4.27;;
29246;SDS011;16272;48.188;9.964;2024-01-15T12:59:45;12.60;;;4.80;;
29246;SDS011;16272;48.188;9.964;2024-01-15T13:02:11;13.37;;;4.50;;
29246;SDS011;16272;48.188;9.964;2024-01-15T13:04:37;12.55;;;4.60;;
29246;SDS011;16272;48.188;9.964;2024-01-15T13:07:03;11.77;;;4.47;;
29246;SDS011;16272;48.188;9.964;2024-01-15T13:09:30;13.55;;;4.68;;
29246;SDS011;16272;48.188;9.964;2024-01-15T13:11:55;13.13;;;4.80;;
29246;SDS011;16272;48.188;9.964;2024-01-15T13:14:21;13.10;;;4.53;;
29246;SDS011;16272;48.188;9.964;2024-01-15T13:16:46;12.63;;;4.80;;
29246;SDS011;16272;48.188;9.964;2024-01-15T13:19:11;11.67;;;4.10;;
29246;SDS011;16272;48.188;9.964;2024-01-15T13:21:37;12.03;;;4.10;;
29246;SDS011;16272;48.188;9.964;2024-01-15T13:24:04;12.33;;;4.20;;
29246;SDS011;16272;48.188;9.964;2024-01-15T13:26:30;12.73;;;4.65;;
29246;SDS011;16272;48.188;9.964;2024-01-15T13:29:05;11.85;;;3.90;;
29246;SDS011;16272;48.188;9.964;2024-01-15T13:31:31;11.07;;;3.87;;
29246;SDS011;16272;48.188;9.964;2024-01-15T13:33:59;12.35;;;4.40;;
29246;SDS011;16272;48.188;9.964;2024-01-15T13:36:25;11.20;;;3.10;;
29246;SDS011;16272;48.188;9.964;2024-01-15T13:38:51;9.15;;;3.10;;
29246;SDS011;16272;48.188;9.964;2024-01-15T13:41:18;11.95;;;4.00;;
29246;SDS011;16272;48.188;9.964;2024-01-15T13:43:53;12.40;;;4.22;;
29246;SDS011;16272;48.188;9.964;2024-01-15T13:46:19;10.85;;;4.00;;
29246;SDS011;16272;48.188;9.964;2024-01-15T13:48:46;11.65;;;4.00;;
29246;SDS011;16272;48.188;9.964;2024-01-15T13:51:12;9.57;;;2.67;;
29246;SDS011;16272;48.188;9.964;2024-01-15T13:53:37;11.60;;;3.50;;
29246;SDS011;16272;48.188;9.964;2024-01-15T13:56:04;11.57;;;3.80;;
29246;SDS011;16272;48.188;9.964;2024-01-15T13:58:30;10.90;;;3.73;;
29246;SDS011;16272;48.188;9.964;2024-01-15T14:00:56;11.68;;;4.00;;
29246;SDS011;16272;48.188;9.964;2024-01-15T14:03:21;11.32;;;3.70;;
29246;SDS011;16272;48.188;9.964;2024-01-15T14:05:47;9.43;;;3.40;;
29246;SDS011;16272;48.188;9.964;2024-01-15T14:08:12;11.13;;;3.50;;
29246;SDS011;16272;48.188;9.964;2024-01-15T14:10:37;10.20;;;3.70;;
29246;SDS011;16272;48.188;9.964;2024-01-15T14:13:02;10.57;;;3.53;;
29246;SDS011;16272;48.188;9.964;2024-01-15T14:15:28;10.98;;;3.67;;
29246;SDS011;16272;48.188;9.964;2024-01-15T14:17:53;9.80;;;3.57;;
29246;SDS011;16272;48.188;9.964;2024-01-15T14:20:19;12.17;;;4.13;;
29246;SDS011;16272;48.188;9.964;2024-01-15T14:22:44;13.00;;;4.63;;
29246;SDS011;16272;48.188;9.964;2024-01-15T14:25:09;12.30;;;3.83;;
29246;SDS011;16272;48.188;9.964;2024-01-15T14:27:35;10.37;;;3.33;;
29246;SDS011;16272;48.188;9.964;2024-01-15T14:30:01;8.37;;;2.97;;
29246;SDS011;16272;48.188;9.964;2024-01-15T14:32:27;8.00;;;2.85;;
29246;SDS011;16272;48.188;9.964;2024-01-15T14:34:52;7.60;;;2.60;;
29246;SDS011;16272;48.188;9.964;2024-01-15T14:37:17;7.10;;;2.30;;
29246;SDS011;16272;48.188;9.964;2024-01-15T14:39:43;8.00;;;2.53;;
29246;SDS011;16272;48.188;9.964;2024-01-15T14:42:08;7.63;;;2.27;;